sensor_id;sensor_type;location;lat;lon;timestamp;P1;durP1;ratioP1;P2;durP2;ratioP2
80926;SDS011;70385;44.538;18.532;2023-11-19T00:00:20;176.60;;;81.53;;
80926;SDS011;70385;44.538;18.532;2023-11-19T00:02:51;181.45;;;78.38;;
80926;SDS011;70385;44.538;18.532;2023-11-19T00:05:18;184.48;;;78.22;;
80926;SDS011;70385;44.538;18.532;2023-11-19T00:07:47;171.25;;;73.93;;
80926;SDS011;70385;44.538;18.532;2023-11-19T00:10:14;163.73;;;71.50;;
80926;SDS011;70385;44.538;18.532;2023-11-19T00:12:47;170.13;;;75.70;;
80926;SDS011;70385;44.538;18.532;2023-11-19T00:15:16;179.23;;;77.47;;
80926;SDS011;70385;44.538;18.532;2023-11-19T00:17:47;165.35;;;74.30;;
80926;SDS011;70385;44.538;18.532;2023-11-19T00:20:20;157.60;;;69.80;;
80926;SDS011;70385;44.538;18.532;2023-11-19T00:22:51;159.95;;;68.35;;
80926;SDS011;70385;44.538;18.532;2023-11-19T00:25:20;161.63;;;69.95;;
80926;SDS011;70385;44.538;18.532;2023-11-19T00:27:50;164.07;;;69.70;;
80926;SDS011;70385;44.538;18.532;2023-11-19T00:30:18;159.48;;;68.40;;
80926;SDS011;70385;44.538;18.532;2023-11-19T00:32:47;141.82;;;63.90;;
80926;SDS011;70385;44.538;18.532;2023-11-19T00:35:14;160.30;;;66.43;;
80926;SDS011;70385;44.538;18.532;2023-11-19T00:37:40;153.98;;;65.40;;
80926;SDS011;70385;44.538;18.532;2023-11-19T00:40:08;144.77;;;62.78;;
80926;SDS011;70385;44.538;18.532;2023-11-19T00:42:38;153.13;;;65.13;;
80926;SDS011;70385;44.538;18.532;2023-11-19T00:45:06;156.65;;;64.28;;
80926;SDS011;70385;44.538;18.532;2023-11-19T00:47:35;150.75;;;62.63;;
80926;SDS011;70385;44.538;18.532;2023-11-19T00:50:05;137.45;;;57.28;;
80926;SDS011;70385;44.538;18.532;2023-11-19T00:52:37;144.13;;;59.35;;
80926;SDS011;70385;44.538;18.532;2023-11-19T00:55:04;135.93;;;58.20;;
80926;SDS011;70385;44.538;18.532;2023-11-19T00:57:40;132.68;;;58.15;;
80926;SDS011;70385;44.538;18.532;2023-11-19T01:00:07;113.40;;;52.92;;
80926;SDS011;70385;44.538;18.532;2023-11-19T01:02:44;128.25;;;56.53;;
80926;SDS011;70385;44.538;18.532;2023-11-19T01:05:15;120.22;;;54.28;;
80926;SDS011;70385;44.538;18.532;2023-11-19T01:07:41;115.00;;;54.13;;
80926;SDS011;70385;44.538;18.532;2023-11-19T01:10:10;121.28;;;52.28;;
80926;SDS011;70385;44.538;18.532;2023-11-19T01:12:38;113.10;;;52.88;;
80926;SDS011;70385;44.538;18.532;2023-11-19T01:15:05;120.18;;;54.95;;
80926;SDS011;70385;44.538;18.532;2023-11-19T01:17:33;119.18;;;49.78;;
80926;SDS011;70385;44.538;18.532;2023-11-19T01:20:02;110.72;;;46.75;;
80926;SDS011;70385;44.538;18.532;2023-11-19T01:22:31;112.05;;;46.42;;
80926;SDS011;70385;44.538;18.532;2023-11-19T01:24:59;112.57;;;50.78;;
80926;SDS011;70385;44.538;18.532;2023-11-19T01:27:25;121.30;;;51.88;;
80926;SDS011;70385;44.538;18.532;2023-11-19T01:29:53;114.88;;;50.80;;
80926;SDS011;70385;44.538;18.532;2023-11-19T01:32:21;111.50;;;51.60;;
80926;SDS011;70385;44.538;18.532;2023-11-19T01:34:54;116.22;;;48.47;;
80926;SDS011;70385;44.538;18.532;2023-11-19T01:37:20;99.22;;;46.63;;
80926;SDS011;70385;44.538;18.532;2023-11-19T01:39:46;111.30;;;48.55;;
80926;SDS011;70385;44.538;18.532;2023-11-19T01:42:13;104.13;;;44.05;;
80926;SDS011;70385;44.538;18.532;2023-11-19T01:44:40;114.28;;;50.92;;
80926;SDS011;70385;44.538;18.532;2023-11-19T01:50:01;108.00;;;51.50;;
80926;SDS011;70385;44.538;18.532;2023-11-19T01:52:32;114.55;;;53.50;;
80926;SDS011;70385;44.538;18.532;2023-11-19T01:55:05;110.80;;;49.97;;
80926;SDS011;70385;44.538;18.532;2023-11-19T01:57:34;121.50;;;52.92;;
80926;SDS011;70385;44.538;18.532;2023-11-19T02:00:05;108.18;;;50.25;;
80926;SDS011;70385;44.538;18.532;2023-11-19T02:02:40;114.75;;;51.88;;
80926;SDS011;70385;44.538;18.532;2023-11-19T02:05:07;116.70;;;52.03;;
80926;SDS011;70385;44.538;18.532;2023-11-19T02:07:33;118.95;;;51.45;;
80926;SDS011;70385;44.538;18.532;2023-11-19T02:09:59;136.55;;;55.20;;
80926;SDS011;70385;44.538;18.532;2023-11-19T02:12:33;124.38;;;57.10;;
80926;SDS011;70385;44.538;18.532;2023-11-19T02:14:59;121.60;;;52.95;;
80926;SDS011;70385;44.538;18.532;2023-11-19T02:17:29;121.00;;;53.72;;
80926;SDS011;70385;44.538;18.532;2023-11-19T02:20:00;120.25;;;55.03;;
80926;SDS011;70385;44.538;18.532;2023-11-19T02:22:27;125.13;;;52.72;;
80926;SDS011;70385;44.538;18.532;2023-11-19T02:25:03;130.73;;;55.72;;
80926;SDS011;70385;44.538;18.532;2023-11-19T02:30:16;132.68;;;58.28;;
80926;SDS011;70385;44.538;18.532;2023-11-19T02:32:42;126.47;;;57.47;;
80926;SDS011;70385;44.538;18.532;2023-11-19T02:35:08;142.30;;;59.03;;
80926;SDS011;70385;44.538;18.532;2023-11-19T02:37:38;130.80;;;55.65;;
80926;SDS011;70385;44.538;18.532;2023-11-19T02:40:05;126.35;;;55.15;;
80926;SDS011;70385;44.538;18.532;2023-11-19T02:42:35;126.82;;;52.03;;
80926;SDS011;70385;44.538;18.532;2023-11-19T02:45:03;132.40;;;53.13;;
80926;SDS011;70385;44.538;18.532;2023-11-19T02:47:31;140.23;;;56.85;;
80926;SDS011;70385;44.538;18.532;2023-11-19T02:50:01;151.57;;;61.60;;
80926;SDS011;70385;44.538;18.532;2023-11-19T02:52:28;144.75;;;61.17;;
80926;SDS011;70385;44.538;18.532;2023-11-19T02:54:56;149.07;;;61.10;;
80926;SDS011;70385;44.538;18.532;2023-11-19T02:57:24;159.15;;;64.35;;
80926;SDS011;70385;44.538;18.532;2023-11-19T02:59:50;129.35;;;60.88;;
80926;SDS011;70385;44.538;18.532;2023-11-19T03:02:16;150.57;;;62.35;;
80926;SDS011;70385;44.538;18.532;2023-11-19T03:04:43;149.70;;;62.15;;
80926;SDS011;70385;44.538;18.532;2023-11-19T03:07:14;143.50;;;63.80;;
80926;SDS011;70385;44.538;18.532;2023-11-19T03:09:43;139.70;;;59.75;;
80926;SDS011;70385;44.538;18.532;2023-11-19T03:12:15;141.32;;;58.08;;
80926;SDS011;70385;44.538;18.532;2023-11-19T03:14:44;141.85;;;60.95;;
80926;SDS011;70385;44.538;18.532;2023-11-19T03:17:15;140.35;;;60.53;;
80926;SDS011;70385;44.538;18.532;2023-11-19T03:19:42;135.38;;;58.15;;
80926;SDS011;70385;44.538;18.532;2023-11-19T03:22:09;144.52;;;61.08;;
80926;SDS011;70385;44.538;18.532;2023-11-19T03:24:40;148.32;;;63.15;;
80926;SDS011;70385;44.538;18.532;2023-11-19T03:27:06;133.77;;;57.08;;
80926;SDS011;70385;44.538;18.532;2023-11-19T03:29:34;126.78;;;55.45;;
80926;SDS011;70385;44.538;18.532;2023-11-19T03:32:01;134.90;;;56.65;;
80926;SDS011;70385;44.538;18.532;2023-11-19T03:34:27;132.48;;;57.33;;
80926;SDS011;70385;44.538;18.532;2023-11-19T03:36:54;130.60;;;55.53;;
80926;SDS011;70385;44.538;18.532;2023-11-19T03:39:21;128.13;;;55.55;;
80926;SDS011;70385;44.538;18.532;2023-11-19T03:41:52;134.50;;;55.22;;
80926;SDS011;70385;44.538;18.532;2023-11-19T03:44:18;172.50;;;68.55;;
80926;SDS011;70385;44.538;18.532;2023-11-19T03:46:45;143.80;;;59.60;;
80926;SDS011;70385;44.538;18.532;2023-11-19T03:49:11;147.23;;;59.25;;
80926;SDS011;70385;44.538;18.532;2023-11-19T03:51:42;153.27;;;58.13;;
80926;SDS011;70385;44.538;18.532;2023-11-19T03:56:42;143.65;;;56.10;;
80926;SDS011;70385;44.538;18.532;2023-11-19T03:59:08;121.57;;;53.28;;
80926;SDS011;70385;44.538;18.532;2023-11-19T04:01:37;138.75;;;57.17;;
80926;SDS011;70385;44.538;18.532;2023-11-19T04:04:03;142.25;;;58.00;;
80926;SDS011;70385;44.538;18.532;2023-11-19T04:06:29;136.57;;;54.85;;
80926;SDS011;70385;44.538;18.532;2023-11-19T04:08:57;117.78;;;53.70;;
80926;SDS011;70385;44.538;18.532;2023-11-19T04:11:43;114.95;;;53.42;;
80926;SDS011;70385;44.538;18.532;2023-11-19T04:14:14;116.07;;;52.15;;
80926;SDS011;70385;44.538;18.532;2023-11-19T04:16:49;114.43;;;51.38;;
80926;SDS011;70385;44.538;18.532;2023-11-19T04:19:18;106.90;;;49.15;;
80926;SDS011;70385;44.538;18.532;2023-11-19T04:21:44;108.15;;;52.60;;
80926;SDS011;70385;44.538;18.532;2023-11-19T04:24:15;115.38;;;53.75;;
80926;SDS011;70385;44.538;18.532;2023-11-19T04:26:42;108.47;;;53.85;;
80926;SDS011;70385;44.538;18.532;2023-11-19T04:29:29;110.45;;;49.35;;
80926;SDS011;70385;44.538;18.532;2023-11-19T04:31:56;114.38;;;49.22;;
80926;SDS011;70385;44.538;18.532;2023-11-19T04:34:25;117.25;;;50.80;;
80926;SDS011;70385;44.538;18.532;2023-11-19T04:36:51;113.57;;;48.00;;
80926;SDS011;70385;44.538;18.532;2023-11-19T04:39:18;106.65;;;48.70;;
80926;SDS011;70385;44.538;18.532;2023-11-19T04:41:51;116.63;;;57.85;;
80926;SDS011;70385;44.538;18.532;2023-11-19T04:44:20;109.05;;;46.67;;
80926;SDS011;70385;44.538;18.532;2023-11-19T04:46:47;80.13;;;39.00;;
80926;SDS011;70385;44.538;18.532;2023-11-19T04:49:13;85.05;;;40.35;;
80926;SDS011;70385;44.538;18.532;2023-11-19T04:51:44;93.25;;;41.50;;
80926;SDS011;70385;44.538;18.532;2023-11-19T04:54:13;88.53;;;41.03;;
80926;SDS011;70385;44.538;18.532;2023-11-19T04:56:40;94.05;;;42.25;;
80926;SDS011;70385;44.538;18.532;2023-11-19T04:59:10;86.35;;;39.30;;
80926;SDS011;70385;44.538;18.532;2023-11-19T05:01:36;97.03;;;40.58;;
80926;SDS011;70385;44.538;18.532;2023-11-19T05:04:05;86.05;;;37.55;;
80926;SDS011;70385;44.538;18.532;2023-11-19T05:06:32;83.10;;;36.75;;
80926;SDS011;70385;44.538;18.532;2023-11-19T05:08:59;90.80;;;38.33;;
80926;SDS011;70385;44.538;18.532;2023-11-19T05:11:33;77.00;;;36.80;;
80926;SDS011;70385;44.538;18.532;2023-11-19T05:14:04;72.95;;;35.25;;
80926;SDS011;70385;44.538;18.532;2023-11-19T05:16:30;77.40;;;34.58;;
80926;SDS011;70385;44.538;18.532;2023-11-19T05:18:57;69.15;;;34.20;;
80926;SDS011;70385;44.538;18.532;2023-11-19T05:21:24;73.82;;;34.97;;
80926;SDS011;70385;44.538;18.532;2023-11-19T05:23:53;84.65;;;39.60;;
80926;SDS011;70385;44.538;18.532;2023-11-19T05:26:20;75.78;;;37.53;;
80926;SDS011;70385;44.538;18.532;2023-11-19T05:28:50;73.45;;;37.38;;
80926;SDS011;70385;44.538;18.532;2023-11-19T05:31:17;70.95;;;37.40;;
80926;SDS011;70385;44.538;18.532;2023-11-19T05:33:43;78.07;;;39.33;;
80926;SDS011;70385;44.538;18.532;2023-11-19T05:36:10;68.20;;;35.95;;
80926;SDS011;70385;44.538;18.532;2023-11-19T05:38:43;89.93;;;46.30;;
80926;SDS011;70385;44.538;18.532;2023-11-19T05:41:11;85.95;;;44.30;;
80926;SDS011;70385;44.538;18.532;2023-11-19T05:43:37;54.58;;;32.03;;
80926;SDS011;70385;44.538;18.532;2023-11-19T05:46:08;86.40;;;43.72;;
80926;SDS011;70385;44.538;18.532;2023-11-19T05:48:34;85.50;;;43.13;;
80926;SDS011;70385;44.538;18.532;2023-11-19T05:51:01;54.00;;;29.63;;
80926;SDS011;70385;44.538;18.532;2023-11-19T05:53:28;58.42;;;29.98;;
80926;SDS011;70385;44.538;18.532;2023-11-19T05:55:54;56.40;;;29.38;;
80926;SDS011;70385;44.538;18.532;2023-11-19T05:58:26;69.72;;;38.47;;
80926;SDS011;70385;44.538;18.532;2023-11-19T06:00:57;72.28;;;38.15;;
80926;SDS011;70385;44.538;18.532;2023-11-19T06:03:23;51.90;;;31.15;;
80926;SDS011;70385;44.538;18.532;2023-11-19T06:05:49;71.10;;;36.35;;
80926;SDS011;70385;44.538;18.532;2023-11-19T06:08:19;66.53;;;35.90;;
80926;SDS011;70385;44.538;18.532;2023-11-19T06:10:46;77.60;;;38.05;;
80926;SDS011;70385;44.538;18.532;2023-11-19T06:13:20;83.07;;;40.20;;
80926;SDS011;70385;44.538;18.532;2023-11-19T06:15:50;85.25;;;41.92;;
80926;SDS011;70385;44.538;18.532;2023-11-19T06:18:16;82.25;;;40.38;;
80926;SDS011;70385;44.538;18.532;2023-11-19T06:20:45;79.15;;;39.10;;
80926;SDS011;70385;44.538;18.532;2023-11-19T06:23:15;78.75;;;40.80;;
80926;SDS011;70385;44.538;18.532;2023-11-19T06:25:43;72.20;;;36.33;;
80926;SDS011;70385;44.538;18.532;2023-11-19T06:28:14;66.07;;;34.40;;
80926;SDS011;70385;44.538;18.532;2023-11-19T06:30:50;83.95;;;36.65;;
80926;SDS011;70385;44.538;18.532;2023-11-19T06:33:18;67.57;;;31.95;;
80926;SDS011;70385;44.538;18.532;2023-11-19T06:36:02;56.75;;;31.52;;
80926;SDS011;70385;44.538;18.532;2023-11-19T06:38:36;60.85;;;30.85;;
80926;SDS011;70385;44.538;18.532;2023-11-19T06:41:07;72.72;;;37.67;;
80926;SDS011;70385;44.538;18.532;2023-11-19T06:43:36;89.47;;;48.70;;
80926;SDS011;70385;44.538;18.532;2023-11-19T06:46:04;103.28;;;52.35;;
80926;SDS011;70385;44.538;18.532;2023-11-19T06:48:32;293.58;;;99.18;;
80926;SDS011;70385;44.538;18.532;2023-11-19T06:51:01;115.50;;;53.53;;
80926;SDS011;70385;44.538;18.532;2023-11-19T06:53:39;110.97;;;58.00;;
80926;SDS011;70385;44.538;18.532;2023-11-19T06:56:10;114.60;;;60.58;;
80926;SDS011;70385;44.538;18.532;2023-11-19T06:58:51;114.07;;;58.47;;
80926;SDS011;70385;44.538;18.532;2023-11-19T07:01:18;99.55;;;51.78;;
80926;SDS011;70385;44.538;18.532;2023-11-19T07:03:46;102.63;;;50.92;;
80926;SDS011;70385;44.538;18.532;2023-11-19T07:06:14;102.95;;;53.97;;
80926;SDS011;70385;44.538;18.532;2023-11-19T07:08:44;107.00;;;55.72;;
80926;SDS011;70385;44.538;18.532;2023-11-19T07:11:14;95.55;;;49.88;;
80926;SDS011;70385;44.538;18.532;2023-11-19T07:13:44;98.55;;;48.65;;
80926;SDS011;70385;44.538;18.532;2023-11-19T07:16:13;65.85;;;37.65;;
80926;SDS011;70385;44.538;18.532;2023-11-19T07:18:58;97.65;;;51.47;;
80926;SDS011;70385;44.538;18.532;2023-11-19T07:21:25;111.88;;;59.60;;
80926;SDS011;70385;44.538;18.532;2023-11-19T07:23:56;134.88;;;69.40;;
80926;SDS011;70385;44.538;18.532;2023-11-19T07:26:24;164.63;;;84.45;;
80926;SDS011;70385;44.538;18.532;2023-11-19T07:28:57;124.93;;;65.97;;
80926;SDS011;70385;44.538;18.532;2023-11-19T07:31:26;170.48;;;93.25;;
80926;SDS011;70385;44.538;18.532;2023-11-19T07:33:53;172.95;;;94.55;;
80926;SDS011;70385;44.538;18.532;2023-11-19T07:36:19;173.20;;;97.07;;
80926;SDS011;70385;44.538;18.532;2023-11-19T07:38:47;170.60;;;93.18;;
80926;SDS011;70385;44.538;18.532;2023-11-19T07:41:15;131.60;;;74.53;;
80926;SDS011;70385;44.538;18.532;2023-11-19T07:43:46;141.68;;;79.25;;
80926;SDS011;70385;44.538;18.532;2023-11-19T07:46:17;152.52;;;81.63;;
80926;SDS011;70385;44.538;18.532;2023-11-19T07:48:47;160.65;;;82.30;;
80926;SDS011;70385;44.538;18.532;2023-11-19T07:51:13;161.20;;;79.20;;
80926;SDS011;70385;44.538;18.532;2023-11-19T07:53:44;122.20;;;60.65;;
80926;SDS011;70385;44.538;18.532;2023-11-19T07:56:12;96.22;;;54.35;;
80926;SDS011;70385;44.538;18.532;2023-11-19T07:58:42;95.93;;;51.38;;
80926;SDS011;70385;44.538;18.532;2023-11-19T08:01:24;81.50;;;43.08;;
80926;SDS011;70385;44.538;18.532;2023-11-19T08:03:51;83.57;;;41.22;;
80926;SDS011;70385;44.538;18.532;2023-11-19T08:06:22;86.05;;;42.80;;
80926;SDS011;70385;44.538;18.532;2023-11-19T08:08:58;83.78;;;38.95;;
80926;SDS011;70385;44.538;18.532;2023-11-19T08:11:30;78.72;;;38.28;;
80926;SDS011;70385;44.538;18.532;2023-11-19T08:13:57;76.28;;;35.13;;
80926;SDS011;70385;44.538;18.532;2023-11-19T08:16:24;60.45;;;30.88;;
80926;SDS011;70385;44.538;18.532;2023-11-19T08:18:50;60.58;;;30.80;;
80926;SDS011;70385;44.538;18.532;2023-11-19T08:21:16;63.97;;;32.67;;
80926;SDS011;70385;44.538;18.532;2023-11-19T08:23:46;62.80;;;31.05;;
80926;SDS011;70385;44.538;18.532;2023-11-19T08:26:12;52.35;;;27.63;;
80926;SDS011;70385;44.538;18.532;2023-11-19T08:28:48;52.78;;;25.65;;
80926;SDS011;70385;44.538;18.532;2023-11-19T08:31:16;55.67;;;25.25;;
80926;SDS011;70385;44.538;18.532;2023-11-19T08:33:42;59.63;;;26.80;;
80926;SDS011;70385;44.538;18.532;2023-11-19T08:36:09;53.10;;;26.42;;
80926;SDS011;70385;44.538;18.532;2023-11-19T08:38:42;46.53;;;26.80;;
80926;SDS011;70385;44.538;18.532;2023-11-19T08:41:08;50.42;;;26.50;;
80926;SDS011;70385;44.538;18.532;2023-11-19T08:43:36;47.05;;;25.30;;
80926;SDS011;70385;44.538;18.532;2023-11-19T08:46:10;40.70;;;21.95;;
80926;SDS011;70385;44.538;18.532;2023-11-19T08:48:37;42.60;;;23.67;;
80926;SDS011;70385;44.538;18.532;2023-11-19T08:51:06;43.05;;;22.92;;
80926;SDS011;70385;44.538;18.532;2023-11-19T08:53:34;41.97;;;22.15;;
80926;SDS011;70385;44.538;18.532;2023-11-19T08:56:01;39.67;;;22.63;;
80926;SDS011;70385;44.538;18.532;2023-11-19T08:58:28;48.17;;;22.73;;
80926;SDS011;70385;44.538;18.532;2023-11-19T09:00:59;41.45;;;22.70;;
80926;SDS011;70385;44.538;18.532;2023-11-19T09:03:27;43.85;;;24.13;;
80926;SDS011;70385;44.538;18.532;2023-11-19T09:05:57;41.55;;;24.65;;
80926;SDS011;70385;44.538;18.532;2023-11-19T09:08:23;50.03;;;24.65;;
80926;SDS011;70385;44.538;18.532;2023-11-19T09:10:49;45.13;;;23.20;;
80926;SDS011;70385;44.538;18.532;2023-11-19T09:13:18;47.75;;;23.92;;
80926;SDS011;70385;44.538;18.532;2023-11-19T09:15:44;47.65;;;22.98;;
80926;SDS011;70385;44.538;18.532;2023-11-19T09:18:17;45.17;;;22.98;;
80926;SDS011;70385;44.538;18.532;2023-11-19T09:20:48;43.30;;;22.63;;
80926;SDS011;70385;44.538;18.532;2023-11-19T09:23:15;45.42;;;23.20;;
80926;SDS011;70385;44.538;18.532;2023-11-19T09:25:41;46.00;;;25.42;;
80926;SDS011;70385;44.538;18.532;2023-11-19T09:28:16;41.83;;;23.87;;
80926;SDS011;70385;44.538;18.532;2023-11-19T09:30:45;42.75;;;23.92;;
80926;SDS011;70385;44.538;18.532;2023-11-19T09:33:13;42.65;;;24.00;;
80926;SDS011;70385;44.538;18.532;2023-11-19T09:35:40;47.83;;;23.73;;
80926;SDS011;70385;44.538;18.532;2023-11-19T09:38:09;42.80;;;24.50;;
80926;SDS011;70385;44.538;18.532;2023-11-19T09:40:39;49.70;;;24.88;;
80926;SDS011;70385;44.538;18.532;2023-11-19T09:43:15;379.73;;;115.90;;
80926;SDS011;70385;44.538;18.532;2023-11-19T09:45:48;82.40;;;34.60;;
80926;SDS011;70385;44.538;18.532;2023-11-19T09:48:47;45.65;;;25.40;;
80926;SDS011;70385;44.538;18.532;2023-11-19T09:51:21;61.90;;;25.75;;
80926;SDS011;70385;44.538;18.532;2023-11-19T09:53:51;41.88;;;23.73;;
80926;SDS011;70385;44.538;18.532;2023-11-19T09:56:19;46.05;;;23.40;;
80926;SDS011;70385;44.538;18.532;2023-11-19T09:58:50;47.05;;;24.27;;
80926;SDS011;70385;44.538;18.532;2023-11-19T10:01:17;52.40;;;26.88;;
80926;SDS011;70385;44.538;18.532;2023-11-19T10:03:43;42.42;;;23.27;;
80926;SDS011;70385;44.538;18.532;2023-11-19T10:06:15;44.65;;;24.83;;
80926;SDS011;70385;44.538;18.532;2023-11-19T10:08:45;40.75;;;23.05;;
80926;SDS011;70385;44.538;18.532;2023-11-19T10:11:12;41.20;;;21.52;;
80926;SDS011;70385;44.538;18.532;2023-11-19T10:13:40;37.20;;;21.33;;
80926;SDS011;70385;44.538;18.532;2023-11-19T10:16:10;38.13;;;22.15;;
80926;SDS011;70385;44.538;18.532;2023-11-19T10:18:46;38.20;;;21.63;;
80926;SDS011;70385;44.538;18.532;2023-11-19T10:21:18;37.53;;;21.35;;
80926;SDS011;70385;44.538;18.532;2023-11-19T10:26:14;35.22;;;20.02;;
80926;SDS011;70385;44.538;18.532;2023-11-19T10:28:41;32.78;;;18.77;;
80926;SDS011;70385;44.538;18.532;2023-11-19T10:31:15;29.83;;;16.05;;
80926;SDS011;70385;44.538;18.532;2023-11-19T10:33:45;29.58;;;16.35;;
80926;SDS011;70385;44.538;18.532;2023-11-19T10:36:12;24.92;;;13.77;;
80926;SDS011;70385;44.538;18.532;2023-11-19T10:38:39;25.33;;;13.65;;
80926;SDS011;70385;44.538;18.532;2023-11-19T10:41:08;23.70;;;13.52;;
80926;SDS011;70385;44.538;18.532;2023-11-19T10:43:54;18.75;;;10.85;;
80926;SDS011;70385;44.538;18.532;2023-11-19T10:46:44;23.70;;;11.07;;
80926;SDS011;70385;44.538;18.532;2023-11-19T10:49:17;17.65;;;10.55;;
80926;SDS011;70385;44.538;18.532;2023-11-19T10:51:45;17.17;;;10.15;;
80926;SDS011;70385;44.538;18.532;2023-11-19T10:54:18;18.73;;;10.50;;
80926;SDS011;70385;44.538;18.532;2023-11-19T10:56:54;24.08;;;12.20;;
80926;SDS011;70385;44.538;18.532;2023-11-19T10:59:29;20.63;;;11.45;;
80926;SDS011;70385;44.538;18.532;2023-11-19T11:02:00;22.42;;;11.27;;
80926;SDS011;70385;44.538;18.532;2023-11-19T11:04:33;26.15;;;13.05;;
80926;SDS011;70385;44.538;18.532;2023-11-19T11:07:09;24.58;;;12.80;;
80926;SDS011;70385;44.538;18.532;2023-11-19T11:09:36;24.63;;;13.07;;
80926;SDS011;70385;44.538;18.532;2023-11-19T11:12:04;23.08;;;13.15;;
80926;SDS011;70385;44.538;18.532;2023-11-19T11:14:34;24.45;;;13.50;;
80926;SDS011;70385;44.538;18.532;2023-11-19T11:17:03;20.70;;;12.32;;
80926;SDS011;70385;44.538;18.532;2023-11-19T11:19:35;33.97;;;16.83;;
80926;SDS011;70385;44.538;18.532;2023-11-19T11:22:05;28.45;;;15.32;;
80926;SDS011;70385;44.538;18.532;2023-11-19T11:30:46;32.15;;;15.25;;
80926;SDS011;70385;44.538;18.532;2023-11-19T11:36:23;22.90;;;13.93;;
80926;SDS011;70385;44.538;18.532;2023-11-19T11:38:50;21.40;;;11.75;;
80926;SDS011;70385;44.538;18.532;2023-11-19T11:41:17;21.10;;;11.07;;
80926;SDS011;70385;44.538;18.532;2023-11-19T11:43:48;13.90;;;7.97;;
80926;SDS011;70385;44.538;18.532;2023-11-19T11:47:00;12.25;;;7.00;;
80926;SDS011;70385;44.538;18.532;2023-11-19T11:49:08;14.25;;;7.88;;
80926;SDS011;70385;44.538;18.532;2023-11-19T11:59:50;14.70;;;7.95;;
80926;SDS011;70385;44.538;18.532;2023-11-19T12:02:21;19.00;;;8.40;;
80926;SDS011;70385;44.538;18.532;2023-11-19T12:04:52;12.68;;;6.95;;
80926;SDS011;70385;44.538;18.532;2023-11-19T12:07:23;14.93;;;7.45;;
80926;SDS011;70385;44.538;18.532;2023-11-19T12:10:15;15.70;;;7.93;;
80926;SDS011;70385;44.538;18.532;2023-11-19T12:12:59;21.90;;;9.48;;
80926;SDS011;70385;44.538;18.532;2023-11-19T12:15:26;26.92;;;12.73;;
80926;SDS011;70385;44.538;18.532;2023-11-19T12:18:00;28.52;;;13.05;;
80926;SDS011;70385;44.538;18.532;2023-11-19T12:20:29;22.00;;;11.50;;
80926;SDS011;70385;44.538;18.532;2023-11-19T12:23:04;21.80;;;12.02;;
80926;SDS011;70385;44.538;18.532;2023-11-19T12:25:34;20.95;;;10.75;;
80926;SDS011;70385;44.538;18.532;2023-11-19T12:28:03;21.20;;;11.77;;
80926;SDS011;70385;44.538;18.532;2023-11-19T12:30:38;19.15;;;10.60;;
80926;SDS011;70385;44.538;18.532;2023-11-19T12:33:10;20.52;;;11.77;;
80926;SDS011;70385;44.538;18.532;2023-11-19T12:35:45;20.25;;;12.65;;
80926;SDS011;70385;44.538;18.532;2023-11-19T12:40:47;20.75;;;12.35;;
80926;SDS011;70385;44.538;18.532;2023-11-19T12:43:30;22.35;;;12.52;;
80926;SDS011;70385;44.538;18.532;2023-11-19T12:45:57;21.35;;;13.55;;
80926;SDS011;70385;44.538;18.532;2023-11-19T12:48:23;21.58;;;12.65;;
80926;SDS011;70385;44.538;18.532;2023-11-19T12:50:53;21.38;;;12.57;;
80926;SDS011;70385;44.538;18.532;2023-11-19T12:53:23;21.45;;;12.90;;
80926;SDS011;70385;44.538;18.532;2023-11-19T12:55:55;28.33;;;13.30;;
80926;SDS011;70385;44.538;18.532;2023-11-19T12:58:33;22.15;;;11.80;;
80926;SDS011;70385;44.538;18.532;2023-11-19T13:01:05;25.42;;;12.80;;
80926;SDS011;70385;44.538;18.532;2023-11-19T13:03:36;22.75;;;12.23;;
80926;SDS011;70385;44.538;18.532;2023-11-19T13:06:07;23.20;;;11.25;;
80926;SDS011;70385;44.538;18.532;2023-11-19T13:08:43;17.52;;;9.52;;
80926;SDS011;70385;44.538;18.532;2023-11-19T13:11:30;15.57;;;9.48;;
80926;SDS011;70385;44.538;18.532;2023-11-19T13:14:07;16.25;;;8.68;;
80926;SDS011;70385;44.538;18.532;2023-11-19T13:16:36;17.35;;;8.32;;
80926;SDS011;70385;44.538;18.532;2023-11-19T13:19:05;14.88;;;8.45;;
80926;SDS011;70385;44.538;18.532;2023-11-19T13:21:34;16.75;;;9.45;;
80926;SDS011;70385;44.538;18.532;2023-11-19T13:24:00;22.95;;;11.93;;
80926;SDS011;70385;44.538;18.532;2023-11-19T13:26:29;26.13;;;13.80;;
80926;SDS011;70385;44.538;18.532;2023-11-19T13:29:05;28.08;;;13.98;;
80926;SDS011;70385;44.538;18.532;2023-11-19T13:31:45;29.20;;;14.45;;
80926;SDS011;70385;44.538;18.532;2023-11-19T13:34:12;23.92;;;14.27;;
80926;SDS011;70385;44.538;18.532;2023-11-19T13:36:47;24.27;;;13.57;;
80926;SDS011;70385;44.538;18.532;2023-11-19T13:39:19;24.60;;;14.27;;
80926;SDS011;70385;44.538;18.532;2023-11-19T13:41:48;27.00;;;14.85;;
80926;SDS011;70385;44.538;18.532;2023-11-19T13:44:18;31.33;;;15.23;;
80926;SDS011;70385;44.538;18.532;2023-11-19T13:46:45;27.38;;;14.45;;
80926;SDS011;70385;44.538;18.532;2023-11-19T13:49:12;26.63;;;15.23;;
80926;SDS011;70385;44.538;18.532;2023-11-19T13:51:47;28.35;;;15.35;;
80926;SDS011;70385;44.538;18.532;2023-11-19T13:54:14;35.65;;;18.08;;
80926;SDS011;70385;44.538;18.532;2023-11-19T13:56:40;38.00;;;18.60;;
80926;SDS011;70385;44.538;18.532;2023-11-19T13:59:13;31.58;;;16.83;;
80926;SDS011;70385;44.538;18.532;2023-11-19T14:01:44;31.38;;;17.30;;
80926;SDS011;70385;44.538;18.532;2023-11-19T14:04:15;35.05;;;17.13;;
80926;SDS011;70385;44.538;18.532;2023-11-19T14:06:46;29.20;;;16.88;;
80926;SDS011;70385;44.538;18.532;2023-11-19T14:09:12;33.45;;;18.73;;
80926;SDS011;70385;44.538;18.532;2023-11-19T14:11:43;35.70;;;18.05;;
80926;SDS011;70385;44.538;18.532;2023-11-19T14:14:23;37.50;;;19.60;;
80926;SDS011;70385;44.538;18.532;2023-11-19T14:16:51;41.90;;;20.40;;
80926;SDS011;70385;44.538;18.532;2023-11-19T14:19:21;35.83;;;19.55;;
80926;SDS011;70385;44.538;18.532;2023-11-19T14:21:51;39.28;;;19.13;;
80926;SDS011;70385;44.538;18.532;2023-11-19T14:24:18;35.97;;;18.27;;
80926;SDS011;70385;44.538;18.532;2023-11-19T14:26:45;39.88;;;20.60;;
80926;SDS011;70385;44.538;18.532;2023-11-19T14:29:18;30.70;;;17.83;;
80926;SDS011;70385;44.538;18.532;2023-11-19T14:31:44;42.63;;;21.92;;
80926;SDS011;70385;44.538;18.532;2023-11-19T14:34:12;38.80;;;21.00;;
80926;SDS011;70385;44.538;18.532;2023-11-19T14:36:39;42.63;;;22.15;;
80926;SDS011;70385;44.538;18.532;2023-11-19T14:39:10;47.85;;;23.40;;
80926;SDS011;70385;44.538;18.532;2023-11-19T14:41:42;48.58;;;25.73;;
80926;SDS011;70385;44.538;18.532;2023-11-19T14:44:13;53.05;;;24.92;;
80926;SDS011;70385;44.538;18.532;2023-11-19T14:46:46;44.55;;;24.15;;
80926;SDS011;70385;44.538;18.532;2023-11-19T14:49:16;41.73;;;22.87;;